sensor_id;sensor_type;location;lat;lon;timestamp;pressure;altitude;pressure_sealevel;temperature;humidity
55576;BME280;41437;45.478;9.116;2022-12-04T00:03:00;99639.09;;;6.09;100.00
55576;BME280;41437;45.478;9.116;2022-12-04T00:06:05;99635.41;;;6.03;100.00
55576;BME280;41437;45.478;9.116;2022-12-04T00:09:07;99627.66;;;6.00;100.00
55576;BME280;41437;45.478;9.116;2022-12-04T00:12:09;99624.09;;;6.00;100.00
55576;BME280;41437;45.478;9.116;2022-12-04T00:15:10;99623.28;;;5.99;100.00
55576;BME280;41437;45.478;9.116;2022-12-04T00:18:12;99615.06;;;5.99;100.00
55576;BME280;41437;45.478;9.116;2022-12-04T00:21:17;99611.03;;;6.02;100.00
55576;BME280;41437;45.478;9.116;2022-12-04T00:24:19;99607.94;;;5.98;100.00
55576;BME280;41437;45.478;9.116;2022-12-04T00:27:21;99598.16;;;5.91;100.00
55576;BME280;41437;45.478;9.116;2022-12-04T00:30:23;99606.75;;;5.94;100.00
55576;BME280;41437;45.478;9.116;2022-12-04T00:33:26;99598.91;;;5.98;100.00
55576;BME280;41437;45.478;9.116;2022-12-04T00:36:29;99586.38;;;5.90;100.00
55576;BME280;41437;45.478;9.116;2022-12-04T00:39:31;99584.97;;;5.88;100.00
55576;BME280;41437;45.478;9.116;2022-12-04T00:42:32;99585.81;;;5.88;100.00
55576;BME280;41437;45.478;9.116;2022-12-04T00:45:34;99585.19;;;5.86;100.00
55576;BME280;41437;45.478;9.116;2022-12-04T00:48:36;99581.25;;;5.82;100.00
55576;BME280;41437;45.478;9.116;2022-12-04T00:51:39;99582.09;;;5.83;100.00
55576;BME280;41437;45.478;9.116;2022-12-04T00:54:41;99566.88;;;5.75;100.00
55576;BME280;41437;45.478;9.116;2022-12-04T00:57:42;99568.41;;;5.83;100.00
55576;BME280;41437;45.478;9.116;2022-12-04T01:00:47;99568.19;;;5.84;100.00
55576;BME280;41437;45.478;9.116;2022-12-04T01:03:50;99514.78;;;5.46;100.00
55576;BME280;41437;45.478;9.116;2022-12-04T01:06:53;99492.06;;;5.34;100.00
55576;BME280;41437;45.478;9.116;2022-12-04T01:09:55;99542.13;;;5.70;100.00
55576;BME280;41437;45.478;9.116;2022-12-04T01:12:57;99542.88;;;5.77;100.00
55576;BME280;41437;45.478;9.116;2022-12-04T01:16:00;99502.69;;;5.54;100.00
55576;BME280;41437;45.478;9.116;2022-12-04T01:19:03;99544.44;;;5.85;100.00
55576;BME280;41437;45.478;9.116;2022-12-04T01:22:06;99539.16;;;5.83;100.00
55576;BME280;41437;45.478;9.116;2022-12-04T01:25:09;99547.38;;;5.83;100.00
55576;BME280;41437;45.478;9.116;2022-12-04T01:28:12;99480.94;;;5.36;100.00
55576;BME280;41437;45.478;9.116;2022-12-04T01:31:16;99492.00;;;5.41;100.00
55576;BME280;41437;45.478;9.116;2022-12-04T01:34:18;99535.28;;;5.79;100.00
55576;BME280;41437;45.478;9.116;2022-12-04T01:37:22;99514.22;;;5.68;100.00
55576;BME280;41437;45.478;9.116;2022-12-04T01:40:24;99530.13;;;5.83;100.00
55576;BME280;41437;45.478;9.116;2022-12-04T01:43:28;99482.25;;;5.45;100.00
55576;BME280;41437;45.478;9.116;2022-12-04T01:46:32;99510.66;;;5.67;100.00
55576;BME280;41437;45.478;9.116;2022-12-04T01:49:37;99472.38;;;5.44;100.00
55576;BME280;41437;45.478;9.116;2022-12-04T01:52:41;99515.75;;;5.87;100.00
55576;BME280;41437;45.478;9.116;2022-12-04T01:55:44;99518.66;;;5.92;100.00
55576;BME280;41437;45.478;9.116;2022-12-04T01:58:49;99453.13;;;5.50;100.00
55576;BME280;41437;45.478;9.116;2022-12-04T02:01:58;99507.94;;;5.79;100.00
55576;BME280;41437;45.478;9.116;2022-12-04T02:05:01;99453.97;;;5.51;100.00
55576;BME280;41437;45.478;9.116;2022-12-04T02:08:05;99485.91;;;5.74;100.00
55576;BME280;41437;45.478;9.116;2022-12-04T02:11:15;99444.69;;;5.52;100.00
55576;BME280;41437;45.478;9.116;2022-12-04T02:14:25;99492.69;;;5.83;100.00
55576;BME280;41437;45.478;9.116;2022-12-04T02:17:35;99494.84;;;5.81;100.00
55576;BME280;41437;45.478;9.116;2022-12-04T02:20:44;99487.72;;;5.80;100.00
55576;BME280;41437;45.478;9.116;2022-12-04T02:24:02;99484.75;;;5.82;100.00
55576;BME280;41437;45.478;9.116;2022-12-04T02:27:19;99424.63;;;5.46;100.00
55576;BME280;41437;45.478;9.116;2022-12-04T02:30:26;99458.38;;;5.75;100.00
55576;BME280;41437;45.478;9.116;2022-12-04T02:33:35;99490.94;;;5.89;100.00
55576;BME280;41437;45.478;9.116;2022-12-04T02:36:42;99415.13;;;5.49;100.00
55576;BME280;41437;45.478;9.116;2022-12-04T02:39:50;99423.78;;;5.34;100.00
55576;BME280;41437;45.478;9.116;2022-12-04T02:42:58;99476.69;;;5.75;100.00
55576;BME280;41437;45.478;9.116;2022-12-04T02:46:08;99408.94;;;5.42;100.00
55576;BME280;41437;45.478;9.116;2022-12-04T02:49:18;99479.31;;;5.93;100.00
55576;BME280;41437;45.478;9.116;2022-12-04T02:52:26;99457.28;;;5.88;100.00
55576;BME280;41437;45.478;9.116;2022-12-04T02:55:33;99415.22;;;5.66;100.00
55576;BME280;41437;45.478;9.116;2022-12-04T02:58:41;99468.13;;;5.95;100.00
55576;BME280;41437;45.478;9.116;2022-12-04T03:01:50;99410.25;;;5.63;100.00
55576;BME280;41437;45.478;9.116;2022-12-04T03:04:55;99455.13;;;5.90;100.00
55576;BME280;41437;45.478;9.116;2022-12-04T03:08:00;99415.94;;;5.73;100.00
55576;BME280;41437;45.478;9.116;2022-12-04T03:11:05;99439.69;;;5.84;100.00
55576;BME280;41437;45.478;9.116;2022-12-04T03:14:11;99463.59;;;6.00;100.00
55576;BME280;41437;45.478;9.116;2022-12-04T03:17:22;99456.22;;;5.89;100.00
55576;BME280;41437;45.478;9.116;2022-12-04T03:20:26;99386.94;;;5.48;100.00
55576;BME280;41437;45.478;9.116;2022-12-04T03:23:32;99391.22;;;5.56;100.00
55576;BME280;41437;45.478;9.116;2022-12-04T03:26:37;99442.44;;;5.96;100.00
55576;BME280;41437;45.478;9.116;2022-12-04T03:29:45;99432.31;;;5.96;100.00
55576;BME280;41437;45.478;9.116;2022-12-04T03:32:55;99384.56;;;5.52;100.00
55576;BME280;41437;45.478;9.116;2022-12-04T03:36:02;99430.88;;;5.82;100.00
55576;BME280;41437;45.478;9.116;2022-12-04T03:39:16;99373.31;;;5.37;100.00
55576;BME280;41437;45.478;9.116;2022-12-04T03:42:24;99390.06;;;5.40;100.00
55576;BME280;41437;45.478;9.116;2022-12-04T03:45:29;99379.94;;;5.52;100.00
55576;BME280;41437;45.478;9.116;2022-12-04T03:48:40;99362.75;;;5.40;100.00
55576;BME280;41437;45.478;9.116;2022-12-04T03:51:46;99360.13;;;5.45;100.00
55576;BME280;41437;45.478;9.116;2022-12-04T03:54:53;99343.03;;;5.15;100.00
55576;BME280;41437;45.478;9.116;2022-12-04T03:57:59;99366.19;;;5.36;100.00
55576;BME280;41437;45.478;9.116;2022-12-04T04:01:06;99337.81;;;5.25;100.00
55576;BME280;41437;45.478;9.116;2022-12-04T04:04:17;99413.66;;;5.70;100.00
55576;BME280;41437;45.478;9.116;2022-12-04T04:07:23;99395.50;;;5.64;100.00
55576;BME280;41437;45.478;9.116;2022-12-04T04:10:41;99371.97;;;5.63;100.00
55576;BME280;41437;45.478;9.116;2022-12-04T04:13:46;99387.50;;;5.74;100.00
55576;BME280;41437;45.478;9.116;2022-12-04T04:17:12;99332.31;;;5.48;100.00
55576;BME280;41437;45.478;9.116;2022-12-04T04:20:36;99379.31;;;5.74;100.00
55576;BME280;41437;45.478;9.116;2022-12-04T04:23:57;99317.84;;;5.36;100.00
55576;BME280;41437;45.478;9.116;2022-12-04T04:27:17;99366.25;;;5.64;100.00
55576;BME280;41437;45.478;9.116;2022-12-04T04:30:20;99320.69;;;5.41;100.00
55576;BME280;41437;45.478;9.116;2022-12-04T04:33:22;99338.13;;;5.52;100.00
55576;BME280;41437;45.478;9.116;2022-12-04T04:36:34;99357.34;;;5.57;100.00
55576;BME280;41437;45.478;9.116;2022-12-04T04:39:44;99364.25;;;5.60;100.00
55576;BME280;41437;45.478;9.116;2022-12-04T04:42:51;99363.44;;;5.59;100.00
55576;BME280;41437;45.478;9.116;2022-12-04T04:45:59;99330.44;;;5.37;100.00
55576;BME280;41437;45.478;9.116;2022-12-04T04:49:09;99309.53;;;5.31;100.00
55576;BME280;41437;45.478;9.116;2022-12-04T04:52:15;99363.41;;;5.71;100.00
55576;BME280;41437;45.478;9.116;2022-12-04T04:55:19;99304.78;;;5.38;100.00
55576;BME280;41437;45.478;9.116;2022-12-04T04:58:21;99365.28;;;5.82;100.00
55576;BME280;41437;45.478;9.116;2022-12-04T05:01:25;99307.59;;;5.43;100.00
55576;BME280;41437;45.478;9.116;2022-12-04T05:04:28;99335.28;;;5.47;100.00
55576;BME280;41437;45.478;9.116;2022-12-04T05:07:33;99375.53;;;5.75;100.00
55576;BME280;41437;45.478;9.116;2022-12-04T05:10:35;99360.91;;;5.69;100.00
55576;BME280;41437;45.478;9.116;2022-12-04T05:13:37;99308.09;;;5.40;100.00
55576;BME280;41437;45.478;9.116;2022-12-04T05:16:39;99378.00;;;5.76;100.00
55576;BME280;41437;45.478;9.116;2022-12-04T05:19:44;99337.91;;;5.53;100.00
55576;BME280;41437;45.478;9.116;2022-12-04T05:23:15;99311.41;;;5.42;100.00
55576;BME280;41437;45.478;9.116;2022-12-04T05:26:27;99313.56;;;5.40;100.00
55576;BME280;41437;45.478;9.116;2022-12-04T05:29:29;99291.84;;;5.22;100.00
55576;BME280;41437;45.478;9.116;2022-12-04T05:32:31;99338.13;;;5.52;100.00
55576;BME280;41437;45.478;9.116;2022-12-04T05:35:34;99330.03;;;5.57;100.00
55576;BME280;41437;45.478;9.116;2022-12-04T05:38:37;99309.63;;;5.48;100.00
55576;BME280;41437;45.478;9.116;2022-12-04T05:41:42;99351.41;;;5.72;100.00
55576;BME280;41437;45.478;9.116;2022-12-04T05:44:52;99337.38;;;5.68;100.00
55576;BME280;41437;45.478;9.116;2022-12-04T05:47:55;99290.84;;;5.40;100.00
55576;BME280;41437;45.478;9.116;2022-12-04T05:50:59;99290.03;;;5.39;100.00
55576;BME280;41437;45.478;9.116;2022-12-04T05:54:05;99329.28;;;5.73;100.00
55576;BME280;41437;45.478;9.116;2022-12-04T05:57:09;99327.53;;;5.67;100.00
55576;BME280;41437;45.478;9.116;2022-12-04T06:00:12;99310.94;;;5.45;100.00
55576;BME280;41437;45.478;9.116;2022-12-04T06:03:14;99323.72;;;5.57;100.00
55576;BME280;41437;45.478;9.116;2022-12-04T06:06:20;99317.69;;;5.54;100.00
55576;BME280;41437;45.478;9.116;2022-12-04T06:09:25;99335.38;;;5.64;100.00
55576;BME280;41437;45.478;9.116;2022-12-04T06:12:28;99327.28;;;5.69;100.00
55576;BME280;41437;45.478;9.116;2022-12-04T06:15:36;99283.38;;;5.35;100.00
55576;BME280;41437;45.478;9.116;2022-12-04T06:18:38;99297.38;;;5.50;100.00
55576;BME280;41437;45.478;9.116;2022-12-04T06:21:51;99294.56;;;5.45;100.00
55576;BME280;41437;45.478;9.116;2022-12-04T06:24:54;99317.09;;;5.52;100.00
55576;BME280;41437;45.478;9.116;2022-12-04T06:28:14;99330.19;;;5.50;100.00
55576;BME280;41437;45.478;9.116;2022-12-04T06:31:16;99299.31;;;5.38;100.00
55576;BME280;41437;45.478;9.116;2022-12-04T06:34:19;99353.44;;;5.65;100.00
55576;BME280;41437;45.478;9.116;2022-12-04T06:37:23;99342.28;;;5.54;100.00
55576;BME280;41437;45.478;9.116;2022-12-04T06:40:42;99325.06;;;5.42;100.00
55576;BME280;41437;45.478;9.116;2022-12-04T06:43:43;99362.72;;;5.64;100.00
55576;BME280;41437;45.478;9.116;2022-12-04T06:46:47;99370.53;;;5.72;100.00
55576;BME280;41437;45.478;9.116;2022-12-04T06:49:49;99377.19;;;5.76;100.00
55576;BME280;41437;45.478;9.116;2022-12-04T06:52:51;99385.13;;;5.89;100.00
55576;BME280;41437;45.478;9.116;2022-12-04T06:55:56;99352.59;;;5.64;100.00
55576;BME280;41437;45.478;9.116;2022-12-04T06:59:00;99392.25;;;5.90;100.00
55576;BME280;41437;45.478;9.116;2022-12-04T07:05:20;99388.69;;;6.01;100.00
55576;BME280;41437;45.478;9.116;2022-12-04T07:08:22;99359.69;;;5.89;100.00
55576;BME280;41437;45.478;9.116;2022-12-04T07:11:27;99309.97;;;5.51;100.00
55576;BME280;41437;45.478;9.116;2022-12-04T07:17:50;99340.59;;;5.65;100.00
55576;BME280;41437;45.478;9.116;2022-12-04T07:20:52;99338.34;;;5.62;100.00
55576;BME280;41437;45.478;9.116;2022-12-04T07:23:56;99346.50;;;5.74;100.00
55576;BME280;41437;45.478;9.116;2022-12-04T07:26:59;99342.72;;;5.75;100.00
55576;BME280;41437;45.478;9.116;2022-12-04T07:30:01;99327.28;;;5.57;100.00
55576;BME280;41437;45.478;9.116;2022-12-04T07:33:03;99358.59;;;5.90;100.00
55576;BME280;41437;45.478;9.116;2022-12-04T07:36:07;99338.63;;;5.89;100.00
55576;BME280;41437;45.478;9.116;2022-12-04T07:39:09;99366.69;;;5.96;100.00
55576;BME280;41437;45.478;9.116;2022-12-04T07:42:12;99350.31;;;5.85;100.00
55576;BME280;41437;45.478;9.116;2022-12-04T07:45:14;99356.59;;;5.85;100.00
55576;BME280;41437;45.478;9.116;2022-12-04T07:48:16;99380.59;;;5.95;100.00
55576;BME280;41437;45.478;9.116;2022-12-04T07:51:19;99367.63;;;5.90;100.00
55576;BME280;41437;45.478;9.116;2022-12-04T07:54:21;99343.50;;;5.87;100.00
55576;BME280;41437;45.478;9.116;2022-12-04T07:57:24;99396.13;;;6.18;100.00
55576;BME280;41437;45.478;9.116;2022-12-04T08:00:25;99392.59;;;6.06;100.00
55576;BME280;41437;45.478;9.116;2022-12-04T08:03:27;99390.72;;;5.94;100.00
55576;BME280;41437;45.478;9.116;2022-12-04T08:06:29;99389.50;;;5.90;100.00
55576;BME280;41437;45.478;9.116;2022-12-04T08:09:32;99390.72;;;5.94;100.00
55576;BME280;41437;45.478;9.116;2022-12-04T08:12:35;99378.56;;;5.90;100.00
55576;BME280;41437;45.478;9.116;2022-12-04T08:15:37;99386.19;;;5.88;100.00
55576;BME280;41437;45.478;9.116;2022-12-04T08:18:38;99388.69;;;5.90;100.00
55576;BME280;41437;45.478;9.116;2022-12-04T08:21:40;99387.50;;;5.97;100.00
55576;BME280;41437;45.478;9.116;2022-12-04T08:24:42;99391.44;;;6.01;100.00
55576;BME280;41437;45.478;9.116;2022-12-04T08:27:45;99390.72;;;5.94;100.00
55576;BME280;41437;45.478;9.116;2022-12-04T08:30:47;99390.81;;;5.99;100.00
55576;BME280;41437;45.478;9.116;2022-12-04T08:33:50;99388.56;;;5.96;100.00
55576;BME280;41437;45.478;9.116;2022-12-04T08:36:52;99398.53;;;5.91;100.00
55576;BME280;41437;45.478;9.116;2022-12-04T08:39:53;99402.59;;;5.88;100.00
55576;BME280;41437;45.478;9.116;2022-12-04T08:42:56;99401.44;;;5.84;100.00
55576;BME280;41437;45.478;9.116;2022-12-04T08:45:59;99403.81;;;5.92;100.00
55576;BME280;41437;45.478;9.116;2022-12-04T08:49:01;99412.94;;;5.86;100.00
55576;BME280;41437;45.478;9.116;2022-12-04T08:52:02;99422.13;;;5.80;100.00
55576;BME280;41437;45.478;9.116;2022-12-04T08:55:05;99430.41;;;5.85;100.00
55576;BME280;41437;45.478;9.116;2022-12-04T08:58:09;99438.16;;;5.88;100.00
55576;BME280;41437;45.478;9.116;2022-12-04T09:01:11;99434.09;;;5.91;100.00
55576;BME280;41437;45.478;9.116;2022-12-04T09:04:13;99447.41;;;5.99;100.00
55576;BME280;41437;45.478;9.116;2022-12-04T09:07:15;99450.88;;;5.94;100.00
55576;BME280;41437;45.478;9.116;2022-12-04T09:10:16;99445.84;;;5.91;100.00
55576;BME280;41437;45.478;9.116;2022-12-04T09:13:19;99456.22;;;6.01;100.00
55576;BME280;41437;45.478;9.116;2022-12-04T09:16:23;99454.69;;;5.93;100.00
55576;BME280;41437;45.478;9.116;2022-12-04T09:19:24;99459.66;;;5.96;100.00
55576;BME280;41437;45.478;9.116;2022-12-04T09:22:26;99463.47;;;5.95;100.00
55576;BME280;41437;45.478;9.116;2022-12-04T09:25:27;99460.16;;;5.93;100.00
55576;BME280;41437;45.478;9.116;2022-12-04T09:28:31;99468.47;;;5.98;100.00
55576;BME280;41437;45.478;9.116;2022-12-04T09:31:33;99448.94;;;5.83;100.00
55576;BME280;41437;45.478;9.116;2022-12-04T09:34:36;99477.84;;;5.91;100.00
55576;BME280;41437;45.478;9.116;2022-12-04T09:37:37;99480.13;;;5.94;100.00
55576;BME280;41437;45.478;9.116;2022-12-04T09:40:45;99483.22;;;5.97;100.00
55576;BME280;41437;45.478;9.116;2022-12-04T09:43:54;99479.06;;;5.95;100.00
55576;BME280;41437;45.478;9.116;2022-12-04T09:46:59;99480.97;;;5.94;100.00
55576;BME280;41437;45.478;9.116;2022-12-04T09:50:05;99480.84;;;6.01;100.00
55576;BME280;41437;45.478;9.116;2022-12-04T09:53:13;99479.25;;;6.05;100.00
55576;BME280;41437;45.478;9.116;2022-12-04T09:56:19;99488.34;;;6.06;100.00
55576;BME280;41437;45.478;9.116;2022-12-04T09:59:24;99498.03;;;6.13;100.00
55576;BME280;41437;45.478;9.116;2022-12-04T10:02:33;99491.66;;;6.08;100.00
55576;BME280;41437;45.478;9.116;2022-12-04T10:05:46;99494.38;;;6.08;100.00
55576;BME280;41437;45.478;9.116;2022-12-04T10:08:59;99484.75;;;6.05;100.00
55576;BME280;41437;45.478;9.116;2022-12-04T10:12:11;99484.97;;;6.15;100.00
55576;BME280;41437;45.478;9.116;2022-12-04T10:15:25;99481.38;;;6.26;100.00
55576;BME280;41437;45.478;9.116;2022-12-04T10:18:40;99485.41;;;6.36;100.00
55576;BME280;41437;45.478;9.116;2022-12-04T10:21:53;99492.78;;;6.35;100.00
55576;BME280;41437;45.478;9.116;2022-12-04T10:25:02;99493.84;;;6.34;100.00
55576;BME280;41437;45.478;9.116;2022-12-04T10:28:17;99492.41;;;6.43;100.00
55576;BME280;41437;45.478;9.116;2022-12-04T10:31:25;99488.94;;;6.48;100.00
55576;BME280;41437;45.478;9.116;2022-12-04T10:34:28;99487.34;;;6.64;100.00
55576;BME280;41437;45.478;9.116;2022-12-04T10:37:38;99494.47;;;6.65;100.00
55576;BME280;41437;45.478;9.116;2022-12-04T10:40:44;99490.31;;;6.62;100.00
55576;BME280;41437;45.478;9.116;2022-12-04T10:43:49;99492.91;;;6.69;100.00
55576;BME280;41437;45.478;9.116;2022-12-04T10:46:55;99489.69;;;6.72;100.00
55576;BME280;41437;45.478;9.116;2022-12-04T10:50:01;99496.91;;;6.78;100.00
55576;BME280;41437;45.478;9.116;2022-12-04T10:53:03;99486.19;;;6.88;100.00
55576;BME280;41437;45.478;9.116;2022-12-04T10:56:10;99487.44;;;6.97;100.00
55576;BME280;41437;45.478;9.116;2022-12-04T10:59:14;99491.25;;;7.13;100.00
55576;BME280;41437;45.478;9.116;2022-12-04T11:02:20;99488.81;;;7.28;100.00
55576;BME280;41437;45.478;9.116;2022-12-04T11:05:25;99489.31;;;7.42;100.00
55576;BME280;41437;45.478;9.116;2022-12-04T11:08:33;99479.75;;;7.45;100.00
55576;BME280;41437;45.478;9.116;2022-12-04T11:11:36;99492.13;;;7.47;100.00
55576;BME280;41437;45.478;9.116;2022-12-04T11:14:40;99487.53;;;7.53;100.00
55576;BME280;41437;45.478;9.116;2022-12-04T11:17:43;99483.97;;;7.52;100.00
55576;BME280;41437;45.478;9.116;2022-12-04T11:20:49;99489.22;;;7.54;100.00
55576;BME280;41437;45.478;9.116;2022-12-04T11:23:54;99493.03;;;7.53;100.00
55576;BME280;41437;45.478;9.116;2022-12-04T11:26:56;99495.13;;;7.46;100.00
55576;BME280;41437;45.478;9.116;2022-12-04T11:30:01;99489.88;;;7.44;100.00
55576;BME280;41437;45.478;9.116;2022-12-04T11:33:13;99490.63;;;7.40;100.00
55576;BME280;41437;45.478;9.116;2022-12-04T11:36:18;99494.78;;;7.42;100.00
55576;BME280;41437;45.478;9.116;2022-12-04T11:39:27;99496.28;;;7.50;100.00
55576;BME280;41437;45.478;9.116;2022-12-04T11:42:30;99503.34;;;7.46;100.00
55576;BME280;41437;45.478;9.116;2022-12-04T11:45:35;99509.06;;;7.44;100.00
55576;BME280;41437;45.478;9.116;2022-12-04T11:48:43;99507.81;;;7.35;100.00
55576;BME280;41437;45.478;9.116;2022-12-04T11:51:51;99504.59;;;7.38;100.00
55576;BME280;41437;45.478;9.116;2022-12-04T11:55:00;99509.16;;;7.49;100.00
55576;BME280;41437;45.478;9.116;2022-12-04T11:58:18;99520.63;;;7.46;100.00
55576;BME280;41437;45.478;9.116;2022-12-04T12:01:33;99517.41;;;7.49;100.00
55576;BME280;41437;45.478;9.116;2022-12-04T12:04:57;99515.38;;;7.62;100.00
55576;BME280;41437;45.478;9.116;2022-12-04T12:08:10;99518.78;;;7.69;100.00
55576;BME280;41437;45.478;9.116;2022-12-04T12:11:21;99512.22;;;7.87;100.00
55576;BME280;41437;45.478;9.116;2022-12-04T12:14:31;99512.63;;;7.95;100.00
55576;BME280;41437;45.478;9.116;2022-12-04T12:17:39;99520.84;;;7.95;100.00
55576;BME280;41437;45.478;9.116;2022-12-04T12:20:55;99511.69;;;8.06;100.00
55576;BME280;41437;45.478;9.116;2022-12-04T12:24:18;99511.50;;;8.13;100.00
55576;BME280;41437;45.478;9.116;2022-12-04T12:27:33;99515.53;;;8.05;100.00
55576;BME280;41437;45.478;9.116;2022-12-04T12:30:53;99522.59;;;8.01;100.00
55576;BME280;41437;45.478;9.116;2022-12-04T12:34:03;99518.34;;;7.94;100.00
55576;BME280;41437;45.478;9.116;2022-12-04T12:37:17;99527.00;;;7.86;100.00
55576;BME280;41437;45.478;9.116;2022-12-04T12:40:27;99524.75;;;7.99;100.00
55576;BME280;41437;45.478;9.116;2022-12-04T12:43:32;99526.97;;;8.19;100.00
55576;BME280;41437;45.478;9.116;2022-12-04T12:46:37;99528.41;;;8.27;100.00
55576;BME280;41437;45.478;9.116;2022-12-04T12:49:47;99538.84;;;8.42;100.00
55576;BME280;41437;45.478;9.116;2022-12-04T12:52:55;99540.00;;;8.46;100.00
55576;BME280;41437;45.478;9.116;2022-12-04T12:56:01;99535.66;;;8.50;100.00
55576;BME280;41437;45.478;9.116;2022-12-04T12:59:08;99540.16;;;8.39;100.00
55576;BME280;41437;45.478;9.116;2022-12-04T13:02:19;99533.06;;;8.43;100.00
55576;BME280;41437;45.478;9.116;2022-12-04T13:05:25;99543.06;;;8.49;100.00
55576;BME280;41437;45.478;9.116;2022-12-04T13:08:35;99549.56;;;8.43;100.00
55576;BME280;41437;45.478;9.116;2022-12-04T13:11:39;99549.47;;;8.38;100.00
55576;BME280;41437;45.478;9.116;2022-12-04T13:14:41;99541.41;;;8.31;100.00
55576;BME280;41437;45.478;9.116;2022-12-04T13:17:45;99540.81;;;8.29;100.00
55576;BME280;41437;45.478;9.116;2022-12-04T13:20:51;99539.59;;;8.20;100.00
55576;BME280;41437;45.478;9.116;2022-12-04T13:27:53;99538.69;;;8.15;100.00
55576;BME280;41437;45.478;9.116;2022-12-04T13:31:05;99542.91;;;8.22;100.00
55576;BME280;41437;45.478;9.116;2022-12-04T13:34:32;99550.78;;;8.36;100.00
55576;BME280;41437;45.478;9.116;2022-12-04T13:37:49;99552.50;;;8.37;100.00
55576;BME280;41437;45.478;9.116;2022-12-04T13:41:00;99553.06;;;8.39;100.00
55576;BME280;41437;45.478;9.116;2022-12-04T13:44:11;99554.88;;;8.33;100.00
55576;BME280;41437;45.478;9.116;2022-12-04T13:47:24;99563.28;;;8.43;100.00
55576;BME280;41437;45.478;9.116;2022-12-04T13:50:29;99564.44;;;8.47;100.00
55576;BME280;41437;45.478;9.116;2022-12-04T13:53:33;99553.84;;;8.56;100.00
55576;BME280;41437;45.478;9.116;2022-12-04T13:56:38;99565.28;;;8.70;100.00
55576;BME280;41437;45.478;9.116;2022-12-04T13:59:40;99561.56;;;8.81;100.00
55576;BME280;41437;45.478;9.116;2022-12-04T14:02:48;99567.72;;;8.88;100.00
55576;BME280;41437;45.478;9.116;2022-12-04T14:05:51;99571.41;;;8.77;100.00
55576;BME280;41437;45.478;9.116;2022-12-04T14:08:55;99555.97;;;8.71;100.00
55576;BME280;41437;45.478;9.116;2022-12-04T14:12:02;99564.13;;;8.66;100.00
55576;BME280;41437;45.478;9.116;2022-12-04T14:15:06;99566.81;;;8.61;100.00
55576;BME280;41437;45.478;9.116;2022-12-04T14:18:19;99577.22;;;8.59;100.00
55576;BME280;41437;45.478;9.116;2022-12-04T14:21:37;99569.84;;;8.25;100.00
55576;BME280;41437;45.478;9.116;2022-12-04T14:24:39;99579.13;;;8.19;100.00
55576;BME280;41437;45.478;9.116;2022-12-04T14:27:44;99572.38;;;8.10;100.00
55576;BME280;41437;45.478;9.116;2022-12-04T14:31:04;99592.72;;;8.31;100.00
55576;BME280;41437;45.478;9.116;2022-12-04T14:34:19;99600.94;;;8.31;100.00
55576;BME280;41437;45.478;9.116;2022-12-04T14:37:26;99599.50;;;8.40;100.00
55576;BME280;41437;45.478;9.116;2022-12-04T14:40:34;99606.38;;;8.43;100.00
55576;BME280;41437;45.478;9.116;2022-12-04T14:43:40;99615.69;;;8.42;100.00
55576;BME280;41437;45.478;9.116;2022-12-04T14:46:48;99612.47;;;8.45;100.00
55576;BME280;41437;45.478;9.116;2022-12-04T14:50:01;99609.44;;;8.46;100.00
55576;BME280;41437;45.478;9.116;2022-12-04T14:53:12;99624.34;;;8.50;100.00
55576;BME280;41437;45.478;9.116;2022-12-04T14:56:31;99626.88;;;8.57;100.00
55576;BME280;41437;45.478;9.116;2022-12-04T14:59:43;99622.16;;;8.52;100.00
55576;BME280;41437;45.478;9.116;2022-12-04T15:02:47;99627.66;;;8.52;100.00
55576;BME280;41437;45.478;9.116;2022-12-04T15:05:49;99642.13;;;8.48;100.00
55576;BME280;41437;45.478;9.116;2022-12-04T15:08:52;99639.06;;;8.44;100.00
55576;BME280;41437;45.478;9.116;2022-12-04T15:12:16;99637.22;;;8.33;100.00
55576;BME280;41437;45.478;9.116;2022-12-04T15:15:43;99647.88;;;8.29;100.00
55576;BME280;41437;45.478;9.116;2022-12-04T15:18:52;99648.63;;;8.25;100.00
55576;BME280;41437;45.478;9.116;2022-12-04T15:21:54;99652.94;;;8.21;100.00
55576;BME280;41437;45.478;9.116;2022-12-04T15:24:56;99643.00;;;8.15;100.00
55576;BME280;41437;45.478;9.116;2022-12-04T15:28:04;99647.22;;;8.05;100.00
55576;BME280;41437;45.478;9.116;2022-12-04T15:31:13;99651.38;;;8.08;100.00
55576;BME280;41437;45.478;9.116;2022-12-04T15:34:18;99653.78;;;8.04;100.00
55576;BME280;41437;45.478;9.116;2022-12-04T15:37:24;99672.41;;;8.02;100.00
55576;BME280;41437;45.478;9.116;2022-12-04T15:40:28;99682.38;;;8.09;100.00
55576;BME280;41437;45.478;9.116;2022-12-04T15:43:32;99681.81;;;8.06;100.00
55576;BME280;41437;45.478;9.116;2022-12-04T15:46:42;99674.66;;;8.05;100.00
55576;BME280;41437;45.478;9.116;2022-12-04T15:49:43;99678.47;;;8.04;100.00
55576;BME280;41437;45.478;9.116;2022-12-04T15:52:47;99685.97;;;8.09;100.00
55576;BME280;41437;45.478;9.116;2022-12-04T15:55:52;99686.91;;;8.15;100.00
55576;BME280;41437;45.478;9.116;2022-12-04T15:58:55;99687.94;;;8.14;100.00
55576;BME280;41437;45.478;9.116;2022-12-04T16:02:04;99672.00;;;8.11;100.00
55576;BME280;41437;45.478;9.116;2022-12-04T16:05:11;99683.97;;;8.04;100.00
55576;BME280;41437;45.478;9.116;2022-12-04T16:08:22;99686.69;;;8.04;100.00
55576;BME280;41437;45.478;9.116;2022-12-04T16:11:30;99689.53;;;8.10;100.00
55576;BME280;41437;45.478;9.116;2022-12-04T16:14:31;99693.97;;;8.11;100.00
55576;BME280;41437;45.478;9.116;2022-12-04T16:17:34;99698.50;;;8.05;100.00
55576;BME280;41437;45.478;9.116;2022-12-04T16:20:37;99690.94;;;7.95;100.00
55576;BME280;41437;45.478;9.116;2022-12-04T16:23:39;99698.00;;;7.91;100.00
55576;BME280;41437;45.478;9.116;2022-12-04T16:26:41;99693.50;;;7.85;100.00
55576;BME280;41437;45.478;9.116;2022-12-04T16:29:42;99695.06;;;7.81;100.00
55576;BME280;41437;45.478;9.116;2022-12-04T16:32:46;99692.91;;;7.83;100.00
55576;BME280;41437;45.478;9.116;2022-12-04T16:35:49;99699.72;;;7.80;100.00
55576;BME280;41437;45.478;9.116;2022-12-04T16:38:51;99698.22;;;7.73;100.00